ンジャメナ国際空港の過去48時間の天気

ンジャメナ国際空港 (Ndjamena)

現在時刻: 9/28 09:08 WAT (9/28 08:08 UTC) 以下の時間は現地時間です。

過去48時間のMETAR気象情報
時間 風向 風速(m/s) 視程 気温(℃) 湿度(%) 気圧(hPa) 天気現象
28 08:00 不定 1 7000m 27 79 1010
28 07:00 静穏 0 6000m 24 100 1009
28 06:00 北北東 2 6000m 24 94 1009
28 05:00 不定 1 8000m 24 94 1009
28 04:00 不定 1 8000m 24 94 1008
28 03:00 静穏 0 8000m 24 94 1009
28 02:00 不定 1 8000m 24 94 1009
28 01:00 南南東 4 8000m 24 94 1009
28 00:00 3 6000m 24 89 1010 弱い雷雨
27 22:00 5 8000m 25 78 1010
27 21:00 3 8000m 25 78 1009
27 20:00 北北西 1 8000m 28 84 1009
27 19:00 西 2 8000m 30 66 1007
27 18:00 南西 3 8000m 30 66 1006
27 17:00 南西 3 10km以上 32 59 1006
27 16:00 南南西 4 10km以上 33 56 1006
27 15:00 4 10km以上 33 56 1006
27 14:00 4 10km以上 32 63 1007
27 13:00 5 10km以上 32 59 1008
27 12:00 南西 5 10km以上 32 63 1009
27 11:00 南南西 5 8000m 31 66 1010
27 10:00 南南西 5 8000m 29 70 1010
27 09:00 南南西 5 8000m 28 74 1011
27 08:00 南南西 3 8000m 27 79 1010
27 07:00 南南西 3 8000m 26 84 1010
27 06:00 南南西 3 8000m 26 84 1009
27 05:00 南西 3 10km以上 26 89 1008
27 04:00 南西 1 10km以上 26 89 1008
27 03:00 南南西 2 10km以上 25 94 1007
27 02:00 2 10km以上 26 89 1007
27 01:00 南西 3 10km以上 26 89 1007
27 00:00 2 10km以上 26 84 1008
26 22:00 南南東 2 10km以上 27 79 1009
26 21:00 東南東 3 8000m 28 74 1009
26 20:00 南東 2 8000m 28 74 1008
26 19:00 南南西 1 8000m 28 79 1007
26 18:00 南西 2 8000m 29 66 1007
26 17:00 西南西 4 8000m 31 55 1006
26 16:00 南南西 4 8000m 32 56 1006
26 15:00 南南西 4 8000m 32 56 1007
26 14:00 南南東 3 8000m 31 55 1008
26 13:00 4 8000m 31 59 1009
26 12:00 南南西 4 8000m 30 59 1010
26 11:00 南南西 3 8000m 29 58 1011
26 10:00 南西 3 8000m 28 70 1012
FTTJ 280700Z VRB01KT 7000 FEW020 27/23 Q1010 NOSIG
FTTJ 280600Z 00000KT 6000 FEW020 24/24 Q1009 NOSIG
FTTJ 280500Z 02003KT 6000 FEW020 24/23 Q1009 NOSIG
FTTJ 280400Z VRB02KT 8000 FEW020 24/23 Q1009 NOSIG
FTTJ 280300Z VRB02KT 8000 FEW020 FEW046CB 24/23 Q1008 NOSIG
FTTJ 280200Z 00000KT 8000 TS FEW020 FEW046CB 24/23 Q1009 NOSIG
FTTJ 280100Z VRB01KT 8000 TS FEW050CB 24/23 Q1009 NOSIG
FTTJ 280000Z 16008KT 8000 TS FEW050CB 24/23 Q1009 NOSIG
FTTJ 272300Z 17005KT 6000 -TSRA SCT040CB 24/22 Q1010 NOSIG
FTTJ 272100Z 08009KT 080V140 8000 SCT033 SCT040CB 25/21 Q1010 TEMPO 09020G35KT 4000 TSRA
FTTJ 272000Z 35005KT 8000 TS FEW030 FEW040CB 25/21 Q1009 NOSIG
FTTJ 271900Z 34002KT 8000 TS FEW030 FEW040CB 28/25 Q1009 TEMPO 09020G35KT 4000 TSRA
FTTJ 271800Z 27004KT 8000 TS FEW033 FEW040CB 30/23 Q1007 TEMPO 09020G35KT 4000 TSRA
FTTJ 271700Z 23005KT 8000 FEW033 FEW040CB 30/23 Q1006 TEMPO TS
FTTJ 271600Z 22005KT 220V300 9999 FEW033 FEW040CB 32/23 Q1006 NOSIG
FTTJ 271500Z 20007KT 9999 FEW033 33/23 Q1006 NOSIG
FTTJ 271400Z 19007KT 9999 SCT033 33/23 Q1006 NOSIG
FTTJ 271300Z 19008KT 9999 SCT033 32/24 Q1007 NOSIG
FTTJ 271200Z 18009KT 180V270 9999 FEW033 32/23 Q1008 NOSIG
FTTJ 271100Z 22009KT 220V290 9999 FEW030 32/24 Q1009 NOSIG
FTTJ 271000Z 21009KT 210V270 8000 FEW030 31/24 Q1010 NOSIG
FTTJ 270900Z 21009KT 210V280 8000 NSC 29/23 Q1010 NOSIG
FTTJ 270800Z 21009KT 8000 NSC 28/23 Q1011 NOSIG
FTTJ 270700Z 21006KT 8000 NSC 27/23 Q1010 NOSIG
FTTJ 270600Z 20006KT 8000 NSC 26/23 Q1010 NOSIG
FTTJ 270500Z 21006KT 8000 NSC 26/23 Q1009 NOSIG
FTTJ 270400Z 22005KT 9999 FEW020 26/24 Q1008 NOSIG
FTTJ 270300Z 22002KT 9999 FEW020 26/24 Q1008 NOSIG
FTTJ 270200Z 21003KT 9999 FEW020 25/24 Q1007 NOSIG
FTTJ 270100Z 17003KT 9999 FEW020 26/24 Q1007 NOSIG
FTTJ 270000Z 22005KT 9999 FEW020 26/24 Q1007 NOSIG
FTTJ 262300Z 18004KT 9999 FEW020 26/23 Q1008 NOSIG
FTTJ 262100Z 16004KT 9999 FEW020 27/23 Q1009 NOSIG
FTTJ 262000Z 12006KT 8000 NSC 28/23 Q1009 NOSIG
FTTJ 261900Z 14003KT 8000 NSC 28/23 Q1008 NOSIG
FTTJ 261800Z 21002KT 8000 NSC 28/24 Q1007 NOSIG
FTTJ 261700Z 22003KT 8000 NSC 29/22 Q1007 NOSIG
FTTJ 261600Z 24007KT 240V300 8000 NSC 31/21 Q1006 NOSIG
FTTJ 261500Z 21007KT 210V270 8000 NSC 32/22 Q1006 NOSIG
FTTJ 261400Z 20007KT 200V270 8000 NSC 32/22 Q1007 NOSIG
FTTJ 261300Z 16006KT 160V250 8000 NSC 31/21 Q1008 NOSIG
FTTJ 261200Z 18007KT 180V240 8000 NSC 31/22 Q1009 NOSIG
FTTJ 261100Z 20007KT 200V270 8000 NSC 30/21 Q1010 NOSIG
FTTJ 261000Z 21006KT 210V300 8000 NSC 29/20 Q1011 NOSIG
FTTJ 260900Z 22006KT 220V280 8000 NSC 28/22 Q1012 NOSIG